Time;durP1;ratioP1;P1;durP2;ratioP2;P2;SDS_P1;SDS_P2;PMS_P1;PMS_P2;Temp;Humidity;BMP_temperature;BMP_pressure;BME280_temperature;BME280_humidity;BME280_pressure;Samples;Min_cycle;Max_cycle;Signal;HPM_P1;HPM_P2
2021/09/29 00:00:30;;;;;;;2.00;1.70;;;18.80;81.80;;;;;;10492962;28;20216;-68
2021/09/29 00:05:52;;;;;;;1.90;1.70;;;18.80;81.80;;;;;;10492611;28;20196;-68
2021/09/29 00:11:15;;;;;;;2.20;1.70;;;18.80;81.80;;;;;;10490495;28;20695;-68
2021/09/29 00:16:37;;;;;;;1.73;1.63;;;18.80;81.80;;;;;;10493801;28;20211;-68
2021/09/29 00:21:59;;;;;;;2.43;2.00;;;18.70;81.80;;;;;;10522160;28;20211;-68
2021/09/29 00:27:23;;;;;;;4.13;1.93;;;18.70;81.70;;;;;;10543337;28;20184;-68
2021/09/29 00:32:45;;;;;;;2.33;1.60;;;18.70;81.80;;;;;;10512171;28;20849;-68
2021/09/29 00:38:07;;;;;;;2.70;1.83;;;18.70;81.70;;;;;;10499278;28;20726;-68
2021/09/29 00:43:30;;;;;;;2.10;1.90;;;18.70;82.30;;;;;;10498359;28;20213;-68
2021/09/29 00:48:52;;;;;;;2.60;1.83;;;18.70;81.70;;;;;;10499728;28;20195;-68
2021/09/29 00:54:15;;;;;;;2.37;1.57;;;18.70;81.80;;;;;;10499264;28;20224;-68
2021/09/29 00:59:38;;;;;;;2.53;1.80;;;18.70;81.80;;;;;;10498601;28;20217;-67
2021/09/29 01:05:01;;;;;;;2.33;1.60;;;18.70;81.70;;;;;;10494397;28;20204;-67
2021/09/29 01:10:31;;;;;;;3.13;1.80;;;18.70;81.70;;;;;;10498409;28;20575;-67
2021/09/29 01:15:59;;;;;;;1.80;1.70;;;18.70;81.70;;;;;;10498503;28;20200;-67
2021/09/29 01:21:22;;;;;;;2.10;1.77;;;18.70;81.70;;;;;;10496699;28;20208;-67
2021/09/29 01:26:47;;;;;;;2.33;1.70;;;18.70;81.70;;;;;;10498500;28;20679;-66
2021/09/29 01:32:09;;;;;;;1.70;1.40;;;18.70;81.70;;;;;;10496291;28;20213;-67
2021/09/29 01:37:32;;;;;;;2.73;1.90;;;18.70;81.70;;;;;;10496207;28;20691;-66
2021/09/29 01:42:55;;;;;;;1.87;1.50;;;18.70;81.60;;;;;;10496362;28;20212;-67
2021/09/29 01:48:18;;;;;;;2.77;2.00;;;18.70;81.60;;;;;;10496839;28;20196;-67
2021/09/29 01:53:43;;;;;;;2.00;1.50;;;18.70;81.60;;;;;;10496384;28;20247;-67
2021/09/29 01:59:06;;;;;;;1.73;1.57;;;18.70;81.60;;;;;;10496235;28;20208;-66
2021/09/29 02:04:28;;;;;;;2.53;1.70;;;18.70;81.60;;;;;;10504593;28;20232;-67
2021/09/29 02:09:51;;;;;;;1.87;1.53;;;18.70;81.60;;;;;;10495472;28;20207;-67
2021/09/29 02:15:15;;;;;;;2.50;1.60;;;18.70;81.60;;;;;;10495921;28;20203;-67
2021/09/29 02:20:37;;;;;;;2.30;1.30;;;18.70;81.60;;;;;;10494318;28;20228;-66
2021/09/29 02:25:59;;;;;;;2.50;1.60;;;18.70;81.60;;;;;;10496380;28;20200;-67
2021/09/29 02:31:23;;;;;;;1.70;1.60;;;18.70;81.60;;;;;;10494680;28;20216;-67
2021/09/29 02:36:45;;;;;;;2.20;1.63;;;18.70;81.60;;;;;;10538209;28;20212;-67
2021/09/29 02:42:07;;;;;;;2.40;1.67;;;18.60;81.50;;;;;;10535979;28;20215;-67
2021/09/29 02:47:31;;;;;;;3.67;1.57;;;18.70;82.10;;;;;;10520654;28;20204;-67
2021/09/29 02:52:53;;;;;;;1.43;1.20;;;18.70;81.50;;;;;;10495191;28;20216;-67
2021/09/29 02:58:15;;;;;;;1.93;1.60;;;18.60;81.50;;;;;;10495580;28;20208;-67
2021/09/29 03:03:38;;;;;;;1.60;1.50;;;18.70;81.50;;;;;;10468801;28;20726;-67
2021/09/29 03:09:01;;;;;;;2.10;1.47;;;18.70;81.50;;;;;;10492759;28;20636;-67
2021/09/29 03:14:23;;;;;;;1.47;1.37;;;18.70;81.50;;;;;;10494175;28;20228;-67
2021/09/29 03:19:46;;;;;;;3.20;1.63;;;18.70;81.50;;;;;;10493701;28;20243;-67
2021/09/29 03:25:09;;;;;;;2.57;1.53;;;18.70;81.50;;;;;;10494200;28;20199;-67
2021/09/29 03:30:31;;;;;;;1.60;1.20;;;18.60;81.40;;;;;;10493735;28;20288;-67
2021/09/29 03:35:55;;;;;;;1.87;1.40;;;18.60;81.40;;;;;;10494413;28;20197;-67
2021/09/29 03:41:17;;;;;;;1.27;1.17;;;18.60;81.40;;;;;;10492347;28;20216;-67
2021/09/29 03:46:39;;;;;;;2.37;1.57;;;18.70;81.50;;;;;;10518570;28;20579;-67
2021/09/29 03:52:03;;;;;;;1.40;1.30;;;18.60;81.40;;;;;;10488740;28;20216;-67
2021/09/29 03:57:25;;;;;;;1.60;1.17;;;18.60;81.40;;;;;;10492951;28;20208;-67
2021/09/29 04:02:47;;;;;;;1.70;1.43;;;18.60;81.40;;;;;;10492395;28;20579;-67
2021/09/29 04:08:10;;;;;;;1.50;1.40;;;18.60;81.40;;;;;;10492514;28;20663;-67
2021/09/29 04:13:33;;;;;;;1.40;1.30;;;18.60;81.40;;;;;;10491495;28;20298;-67
2021/09/29 04:18:56;;;;;;;1.60;1.37;;;18.60;81.40;;;;;;10491647;28;20809;-67
2021/09/29 04:24:19;;;;;;;1.30;1.20;;;18.60;81.30;;;;;;10494484;28;20595;-66
2021/09/29 04:29:41;;;;;;;2.27;1.33;;;18.60;81.30;;;;;;10491333;28;20196;-66
2021/09/29 04:35:04;;;;;;;1.10;1.00;;;18.60;81.20;;;;;;10485013;28;20204;-66
2021/09/29 04:40:27;;;;;;;1.77;1.30;;;18.60;81.20;;;;;;10486275;28;20243;-66
2021/09/29 04:45:50;;;;;;;1.40;1.20;;;18.60;81.20;;;;;;10491107;28;20201;-66
2021/09/29 04:51:12;;;;;;;1.40;1.30;;;18.60;81.20;;;;;;10487873;28;20212;-66
2021/09/29 04:56:35;;;;;;;1.93;1.30;;;18.60;81.20;;;;;;10490985;28;20205;-66
2021/09/29 05:01:58;;;;;;;2.80;1.50;;;18.60;81.10;;;;;;10495021;28;20227;-68
2021/09/29 05:07:21;;;;;;;2.83;1.40;;;18.60;81.00;;;;;;10497278;28;20675;-68
2021/09/29 05:12:48;;;;;;;2.50;1.53;;;18.50;76.90;;;;;;10529747;22;20768;-71
2021/09/29 05:18:10;;;;;;;4.27;1.53;;;18.30;73.60;;;;;;10524223;28;20211;-69
2021/09/29 05:23:32;;;;;;;2.03;1.13;;;18.30;71.80;;;;;;10529160;28;20220;-69
2021/09/29 05:28:57;;;;;;;3.00;1.40;;;18.20;70.80;;;;;;10535662;28;20564;-71
2021/09/29 05:34:20;;;;;;;2.13;1.10;;;18.20;70.40;;;;;;10532838;28;20215;-71
2021/09/29 05:39:42;;;;;;;3.00;1.87;;;18.20;70.30;;;;;;10455791;28;20212;-71
2021/09/29 05:45:07;;;;;;;5.43;1.57;;;18.10;70.30;;;;;;10518588;28;20216;-70
2021/09/29 05:50:29;;;;;;;3.10;1.47;;;18.10;70.00;;;;;;10452972;28;20212;-69
2021/09/29 05:55:53;;;;;;;3.87;1.40;;;18.00;69.40;;;;;;10492988;28;20188;-68
2021/09/29 06:01:16;;;;;;;4.45;1.60;;;18.10;69.80;;;;;;10498064;28;20942;-66
2021/09/29 06:06:38;;;;;;;3.33;1.30;;;18.60;70.20;;;;;;10489521;28;20207;-66
2021/09/29 06:12:00;;;;;;;2.07;1.20;;;18.40;72.00;;;;;;10493212;28;20222;-65
2021/09/29 06:17:25;;;;;;;3.73;1.17;;;18.40;73.30;;;;;;10495059;28;20212;-66
2021/09/29 06:22:47;;;;;;;1.13;0.83;;;18.30;73.30;;;;;;10495353;28;20599;-65
2021/09/29 06:28:09;;;;;;;1.83;0.77;;;18.30;73.30;;;;;;10493687;28;20193;-66
2021/09/29 06:33:33;;;;;;;1.87;1.00;;;18.30;74.00;;;;;;10491179;28;20217;-66
2021/09/29 06:38:55;;;;;;;3.30;0.80;;;18.30;74.60;;;;;;10483856;28;20224;-66
2021/09/29 06:44:17;;;;;;;2.40;1.10;;;18.40;74.80;;;;;;10493314;28;20725;-66
2021/09/29 06:49:40;;;;;;;1.80;0.80;;;18.30;74.60;;;;;;10503827;28;20575;-66
2021/09/29 06:55:04;;;;;;;1.20;0.90;;;18.40;74.50;;;;;;10509462;28;20224;-67
2021/09/29 07:00:26;;;;;;;1.47;1.00;;;18.40;74.20;;;;;;10491233;28;20216;-65
2021/09/29 07:05:50;;;;;;;2.40;0.90;;;18.40;74.80;;;;;;10489430;28;20204;-66
2021/09/29 07:11:12;;;;;;;1.37;0.90;;;18.40;75.10;;;;;;10505002;28;20227;-67
2021/09/29 07:16:34;;;;;;;4.07;1.10;;;18.40;74.80;;;;;;10483748;28;20197;-67
2021/09/29 07:21:57;;;;;;;1.10;0.70;;;18.40;75.00;;;;;;10488640;28;20221;-67
2021/09/29 07:27:20;;;;;;;2.07;0.83;;;18.40;74.90;;;;;;10467014;28;20192;-67
2021/09/29 07:32:45;;;;;;;1.70;0.90;;;18.40;75.50;;;;;;10491016;28;20225;-67
2021/09/29 07:38:09;;;;;;;4.10;1.13;;;18.50;75.80;;;;;;10451407;28;20678;-67
2021/09/29 07:43:31;;;;;;;1.93;1.03;;;18.40;75.90;;;;;;10472756;28;20220;-67
2021/09/29 07:48:53;;;;;;;1.70;0.90;;;18.50;75.80;;;;;;10475189;28;20193;-67
2021/09/29 07:54:17;;;;;;;0.97;0.70;;;18.50;76.00;;;;;;10502305;28;20590;-68
2021/09/29 07:59:39;;;;;;;2.13;0.90;;;18.40;76.30;;;;;;10497599;28;20213;-66
2021/09/29 08:05:02;;;;;;;2.33;1.17;;;18.50;77.00;;;;;;10490533;28;20590;-67
2021/09/29 08:10:26;;;;;;;2.23;1.13;;;18.40;76.40;;;;;;10492074;28;20283;-66
2021/09/29 08:15:48;;;;;;;1.83;1.00;;;18.40;76.40;;;;;;10502348;28;20212;-67
2021/09/29 08:21:15;;;;;;;1.27;1.00;;;18.50;76.90;;;;;;10486174;28;20220;-67
2021/09/29 08:26:55;;;;;;;1.73;1.10;;;18.50;77.60;;;;;;10491977;28;20255;-66
2021/09/29 08:32:23;;;;;;;1.50;1.07;;;18.50;76.70;;;;;;10490464;28;20220;-67
2021/09/29 08:37:48;;;;;;;1.43;1.10;;;18.40;76.60;;;;;;10491605;28;20199;-66
2021/09/29 08:43:24;;;;;;;0.77;0.77;;;18.50;77.10;;;;;;10475471;28;20228;-66
2021/09/29 08:48:57;;;;;;;2.73;0.90;;;18.40;77.00;;;;;;10521983;28;20196;-66
2021/09/29 08:54:37;;;;;;;1.33;1.00;;;18.40;77.60;;;;;;10526849;28;20224;-68
2021/09/29 09:17:06;;;;;;;1.80;1.20;;;18.40;78.20;;;;;;10465900;28;20323;-69
2021/09/29 09:22:34;;;;;;;2.50;1.43;;;18.40;77.60;;;;;;10476590;28;20848;-69
2021/09/29 09:27:56;;;;;;;1.40;1.30;;;18.40;77.70;;;;;;10505484;28;20219;-70
2021/09/29 09:33:25;;;;;;;2.90;1.60;;;18.40;77.80;;;;;;10466385;28;20216;-68
2021/09/29 09:38:48;;;;;;;3.10;1.37;;;18.40;77.30;;;;;;10456608;28;20205;-68
2021/09/29 09:44:10;;;;;;;3.30;1.40;;;18.40;77.50;;;;;;10483568;28;20217;-68
2021/09/29 09:49:44;;;;;;;3.60;1.50;;;18.40;77.30;;;;;;10497748;28;20196;-68
2021/09/29 09:55:09;;;;;;;1.93;1.50;;;18.40;77.20;;;;;;10521480;28;20216;-69
2021/09/29 10:00:33;;;;;;;3.67;1.60;;;18.40;77.00;;;;;;10496301;28;20219;-67
2021/09/29 10:05:57;;;;;;;1.77;1.60;;;18.40;77.10;;;;;;10489116;28;20749;-68
2021/09/29 10:11:21;;;;;;;3.77;1.57;;;18.40;76.90;;;;;;10504129;28;20925;-68
2021/09/29 10:22:55;;;;;;;3.10;1.90;;;18.40;76.70;;;;;;10408198;28;20221;-69
2021/09/29 10:28:18;;;;;;;2.87;1.47;;;18.40;76.90;;;;;;10464815;28;20794;-69
2021/09/29 10:33:43;;;;;;;4.07;1.67;;;18.40;77.00;;;;;;10454618;28;20244;-68
2021/09/29 10:45:26;;;;;;;2.40;1.60;;;18.40;76.80;;;;;;10489684;28;20246;-68
2021/09/29 11:08:16;;;;;;;2.43;1.50;;;18.40;76.60;;;;;;10489053;28;20260;-66
2021/09/29 11:30:57;;;;;;;2.13;1.50;;;18.40;75.80;;;;;;10451790;28;20190;-67
2021/09/29 11:36:40;;;;;;;2.90;1.57;;;18.40;75.70;;;;;;10583777;22;20223;-57
2021/09/29 12:10:30;;;;;;;2.23;1.10;;;18.60;74.50;;;;;;10527923;28;20774;-60
2021/09/29 12:15:52;;;;;;;2.03;1.03;;;18.50;74.60;;;;;;10511073;28;20652;-58
2021/09/29 12:21:15;;;;;;;1.80;1.10;;;18.40;74.50;;;;;;10540651;28;20242;-57
2021/09/29 12:26:43;;;;;;;2.67;1.27;;;18.40;74.20;;;;;;10538905;28;20204;-61
2021/09/29 12:32:27;;;;;;;4.40;1.07;;;18.40;74.00;;;;;;10539833;28;20203;-59
2021/09/29 12:37:59;;;;;;;2.40;0.97;;;18.40;73.90;;;;;;10539825;28;20204;-57
2021/09/29 12:43:23;;;;;;;2.00;1.20;;;18.40;74.00;;;;;;10542075;28;20223;-57
2021/09/29 12:48:46;;;;;;;1.20;0.90;;;18.40;74.20;;;;;;10537924;28;20227;-61
2021/09/29 12:54:15;;;;;;;1.87;1.00;;;18.40;74.20;;;;;;10529906;28;20215;-61
2021/09/29 12:59:37;;;;;;;2.20;1.30;;;18.40;74.50;;;;;;10535864;28;20603;-61
2021/09/29 13:05:00;;;;;;;3.13;1.07;;;18.40;74.60;;;;;;10529738;28;20196;-60
2021/09/29 13:10:23;;;;;;;2.50;1.10;;;18.40;74.90;;;;;;10529800;28;20220;-60
2021/09/29 13:15:48;;;;;;;2.27;1.13;;;18.30;75.00;;;;;;10540171;28;20200;-58
2021/09/29 13:21:14;;;;;;;4.07;1.10;;;18.30;75.00;;;;;;10537786;28;20625;-58
2021/09/29 13:37:59;;;;;;;1.43;1.00;;;18.30;75.10;;;;;;10537929;28;20728;-60
2021/09/29 13:43:22;;;;;;;1.63;0.90;;;18.30;75.20;;;;;;10536239;28;20231;-59
2021/09/29 13:48:45;;;;;;;1.20;0.80;;;18.30;75.30;;;;;;10537107;28;20188;-59
2021/09/29 13:54:09;;;;;;;1.47;0.77;;;18.30;75.50;;;;;;10538010;28;20207;-59
2021/09/29 13:59:44;;;;;;;1.23;0.60;;;18.30;75.70;;;;;;10536399;28;20211;-60
2021/09/29 14:33:38;;;;;;;1.43;0.70;;;18.30;75.20;;;;;;10534949;28;20330;-59
2021/09/29 14:39:01;;;;;;;1.70;0.70;;;18.30;75.60;;;;;;10534219;28;20286;-60
2021/09/29 14:44:23;;;;;;;0.90;0.60;;;18.20;75.50;;;;;;10521203;28;20226;-60
2021/09/29 14:49:46;;;;;;;0.67;0.57;;;18.20;75.20;;;;;;10549985;28;20237;-58
2021/09/29 14:55:09;;;;;;;1.33;0.70;;;18.20;75.00;;;;;;10545408;28;20203;-58
2021/09/29 15:00:33;;;;;;;3.37;0.50;;;18.20;74.90;;;;;;10532112;28;20218;-59
2021/09/29 15:05:56;;;;;;;0.67;0.60;;;18.20;74.80;;;;;;10533221;28;20681;-60
2021/09/29 15:11:20;;;;;;;1.33;0.82;;;18.10;74.70;;;;;;10528472;28;20334;-60
2021/09/29 15:16:51;;;;;;;3.57;1.07;;;18.10;74.90;;;;;;10511812;28;20206;-59
2021/09/29 15:50:50;;;;;;;1.17;0.90;;;18.10;75.30;;;;;;10545789;28;20239;-59
2021/09/29 15:56:17;;;;;;;2.03;0.90;;;18.10;75.20;;;;;;10531867;28;20417;-60
2021/09/29 16:01:40;;;;;;;3.07;0.90;;;18.10;75.30;;;;;;10530903;28;20592;-61
2021/09/29 16:07:10;;;;;;;1.47;0.73;;;18.10;75.20;;;;;;10532463;28;20199;-59
2021/09/29 16:18:25;;;;;;;2.47;0.93;;;18.10;75.80;;;;;;10509300;27;20940;-60
2021/09/29 16:35:11;;;;;;;1.43;0.70;;;18.20;75.70;;;;;;10524372;28;20218;-58
2021/09/29 16:40:34;;;;;;;1.10;0.43;;;18.20;75.30;;;;;;10549409;28;20665;-57
2021/09/29 16:45:58;;;;;;;3.70;0.67;;;18.20;75.30;;;;;;10546352;28;20577;-60
2021/09/29 16:51:25;;;;;;;0.93;0.57;;;18.20;75.30;;;;;;10564510;28;20831;-57
2021/09/29 16:56:48;;;;;;;1.70;0.57;;;18.20;75.10;;;;;;10556725;28;20230;-60
2021/09/29 17:02:12;;;;;;;0.33;0.30;;;18.10;74.80;;;;;;10558115;28;20230;-61
2021/09/29 17:07:36;;;;;;;0.60;0.40;;;18.10;74.40;;;;;;10564974;28;20195;-60
2021/09/29 17:12:58;;;;;;;0.50;0.40;;;18.10;73.90;;;;;;10565150;28;20715;-60
2021/09/29 17:18:20;;;;;;;0.30;0.27;;;18.10;73.80;;;;;;10600892;28;20190;-60
2021/09/29 17:23:44;;;;;;;0.50;0.30;;;18.00;73.30;;;;;;10605139;28;20218;-60
2021/09/29 17:29:10;;;;;;;0.87;0.50;;;18.10;72.80;;;;;;10580196;28;20278;-60
2021/09/29 17:34:38;;;;;;;0.63;0.50;;;18.00;71.50;;;;;;10572703;28;20237;-58
2021/09/29 17:57:01;;;;;;;0.80;0.80;;;17.90;71.40;;;;;;10579335;28;20219;-61
2021/09/29 18:02:28;;;;;;;0.70;0.70;;;17.80;70.80;;;;;;10578352;28;20219;-60
2021/09/29 18:07:50;;;;;;;0.40;0.40;;;17.80;70.60;;;;;;10557043;28;20737;-57
2021/09/29 18:13:14;;;;;;;1.20;0.70;;;17.90;70.50;;;;;;10496859;22;20232;-68
2021/09/29 18:18:36;;;;;;;0.87;0.57;;;17.90;71.70;;;;;;10488596;28;20260;-68
2021/09/29 18:23:58;;;;;;;1.57;0.67;;;18.00;72.10;;;;;;10437849;28;20194;-69
2021/09/29 18:29:23;;;;;;;1.80;0.63;;;18.00;72.10;;;;;;10435341;28;20221;-70
2021/09/29 18:34:45;;;;;;;0.60;0.50;;;18.10;72.50;;;;;;10430542;28;20214;-70
2021/09/29 18:40:08;;;;;;;0.80;0.70;;;18.20;72.80;;;;;;10413414;28;20226;-70
2021/09/29 18:45:32;;;;;;;1.43;0.70;;;18.20;73.20;;;;;;10445393;28;20193;-69
2021/09/29 18:50:55;;;;;;;1.60;0.60;;;18.10;73.40;;;;;;10411899;28;20802;-69
2021/09/29 18:56:30;;;;;;;3.13;0.73;;;18.40;72.90;;;;;;10437557;28;20258;-69
2021/09/29 19:07:41;;;;;;;1.27;0.60;;;18.30;73.70;;;;;;10432408;28;20212;-69
2021/09/29 19:13:04;;;;;;;0.90;0.50;;;18.20;73.90;;;;;;10426700;28;20228;-69
2021/09/29 19:18:27;;;;;;;1.73;0.70;;;18.30;74.10;;;;;;10424454;28;20306;-69
2021/09/29 19:23:50;;;;;;;1.53;0.60;;;18.20;74.20;;;;;;10452695;28;20200;-69
2021/09/29 19:29:12;;;;;;;1.33;0.40;;;18.20;74.20;;;;;;10452177;28;20217;-70
2021/09/29 19:34:35;;;;;;;0.87;0.60;;;18.20;74.30;;;;;;10419491;28;20244;-70
2021/09/29 19:39:57;;;;;;;0.93;0.60;;;18.20;74.50;;;;;;10418461;28;20709;-69
2021/09/29 19:45:20;;;;;;;1.80;0.50;;;18.20;74.60;;;;;;10431421;28;20568;-69
2021/09/29 19:51:05;;;;;;;0.67;0.57;;;18.20;74.70;;;;;;10431896;28;20212;-69
2021/09/29 20:07:48;;;;;;;1.70;0.47;;;18.20;75.00;;;;;;10443854;28;20189;-69
2021/09/29 20:13:10;;;;;;;0.70;0.50;;;18.20;75.10;;;;;;10441742;28;20251;-70
2021/09/29 20:18:35;;;;;;;1.90;0.40;;;18.20;75.20;;;;;;10445876;28;20218;-70
2021/09/29 20:23:58;;;;;;;0.80;0.47;;;18.20;75.30;;;;;;10410602;28;20193;-69
2021/09/29 20:29:20;;;;;;;1.40;0.40;;;18.20;75.40;;;;;;10410148;28;20217;-70
2021/09/29 20:46:02;;;;;;;0.93;0.60;;;18.20;75.80;;;;;;10383406;28;20189;-70
2021/09/29 20:51:25;;;;;;;1.27;0.43;;;18.20;75.80;;;;;;10438816;28;20209;-70
2021/09/29 20:56:48;;;;;;;0.53;0.30;;;18.20;75.90;;;;;;10429995;28;20684;-70
2021/09/29 21:02:10;;;;;;;0.63;0.40;;;18.20;76.00;;;;;;10425465;28;20217;-69
2021/09/29 21:07:32;;;;;;;2.13;0.50;;;18.20;76.00;;;;;;10426330;28;20193;-69
2021/09/29 21:12:58;;;;;;;1.00;0.40;;;18.20;76.10;;;;;;10435075;28;20728;-69
2021/09/29 21:18:21;;;;;;;1.17;0.40;;;18.20;76.20;;;;;;10417252;28;20673;-70
2021/09/29 21:23:43;;;;;;;0.37;0.37;;;18.20;76.20;;;;;;10416487;28;20205;-70
2021/09/29 21:29:06;;;;;;;0.60;0.40;;;18.20;76.20;;;;;;10416442;28;20218;-70
2021/09/29 21:34:28;;;;;;;0.43;0.43;;;18.20;76.30;;;;;;10455517;28;20212;-70
2021/09/29 21:39:59;;;;;;;1.27;0.43;;;18.20;76.40;;;;;;10440291;28;20236;-69
2021/09/29 21:45:41;;;;;;;0.80;0.33;;;18.20;76.40;;;;;;10454684;28;20669;-70
2021/09/29 22:02:41;;;;;;;1.20;0.57;;;18.10;76.50;;;;;;10416767;28;20279;-69
2021/09/29 22:19:37;;;;;;;1.43;0.50;;;18.10;76.60;;;;;;10430803;28;20217;-70
2021/09/29 22:42:33;;;;;;;0.57;0.30;;;18.10;76.70;;;;;;10438368;28;20220;-70
2021/09/29 22:54:30;;;;;;;0.43;0.40;;;18.10;76.80;;;;;;10465100;28;20691;-70
2021/09/29 23:05:34;;;;;;;1.90;0.70;;;18.10;76.80;;;;;;10341974;28;20182;-70
2021/09/29 23:11:05;;;;;;;0.80;0.47;;;18.10;76.80;;;;;;10430264;28;20220;-70
2021/09/29 23:22:32;;;;;;;0.53;0.20;;;18.10;76.80;;;;;;10447902;28;20209;-70
2021/09/29 23:33:35;;;;;;;0.40;0.27;;;18.10;76.90;;;;;;10450827;28;20914;-69
2021/09/29 23:38:57;;;;;;;0.70;0.30;;;18.10;77.00;;;;;;10420547;28;20222;-70
2021/09/29 23:44:20;;;;;;;0.13;0.13;;;18.10;76.90;;;;;;10422100;28;20194;-70
2021/09/29 23:49:43;;;;;;;2.73;0.57;;;18.10;77.00;;;;;;10433311;28;20644;-69
2021/09/29 23:55:06;;;;;;;1.53;0.40;;;18.10;77.00;;;;;;10426752;28;20715;-69
